Pasadena 2N

39° 08' 31"N, 76° 30' 27"W, Elevation 43 ft.
Eastern Time

Hourly observations for the last 72 hours

Date Time Temperature (F) Humi-
dity

(%)
Wind
(mph)
Pressure Rain (in) Sun
(W/m2)
ET
(in)
Air Dew 6 Hour 1 Hr 3 Hr 6 Hr Day
Alt
(in)
Sea
Level

(mb)
Max Min
29 14:00 74.1 66.4 74.1 62.1 77 E 2 G 8 29.92 1013.1 0.00 944 0.027
29 13:00 69.9 64.8 84 NE 4 G 9 29.92 1013.2 0.00 772 0.016
29 12:00 67.6 64.6 90 ENE 1 G 5 29.90 1012.6 0.00 323 0.010
29 11:00 65.1 62.1 90 W 0 G 2 29.88 1011.9 0.00 244 0.005
29 10:00 63.9 61.8 93 ESE 1 G 3 29.88 1011.8 0.00 287 0.002
29 09:00 62.4 60.7 94 ENE 0 G 4 29.86 1011.3 0.00 60 0.001
29 08:00 62.2 60.8 62.3 61.6 95 NE 2 G 4 29.84 1010.6 0.00 47 0.000
29 07:00 61.9 60.7 96 N 1 G 3 29.83 1010.2 0.00 28 0.000
29 06:00 61.7 60.5 96 E 0 G 1 29.81 1009.4 0.00 0 0.000
29 05:00 61.6 60.4 96 NE 0 G 1 29.79 1008.9 0.00 0 0.000
29 04:00 61.8 60.6 96 Calm 29.80 1009.1 0.00 0 0.000
29 03:00 62.1 60.9 96 NNE 0 G 2 29.78 1008.5 0.00 0 0.000
29 02:00 62.0 60.8 64.8 62.0 96 ENE 2 G 5 29.79 1008.9 0.01 0.05 0.00 0 0.000
29 01:00 62.2 61.0 96 NE 2 G 8 29.80 1009.2 0.00 0 0.000
29 00:00 62.7 61.2 95 ENE 2 G 5 29.82 1009.9 0.01 0.14 0 0.068
28 23:00 63.5 62.3 96 E 2 G 7 29.83 1010.2 0.02 0.04 0.13 0 0.068
28 22:00 64.2 63.0 96 ENE 2 G 5 29.83 1010.2 0.11 0 0.068
28 21:00 64.5 63.0 95 ENE 0 G 3 29.82 1009.8 0.02 0.11 0 0.068
28 20:00 64.8 63.0 71.4 64.8 94 E 3 G 6 29.83 1010.0 0.08 0.09 0 0.068
28 19:00 65.4 63.3 93 NE 2 G 5 29.82 1010.0 0.09 19 0.067
28 18:00 67.0 64.6 92 NE 2 G 9 29.82 1009.9 0.09 53 0.065
28 17:00 68.4 66.0 92 E 1 G 3 29.84 1010.4 0.08 0.09 65 0.062
28 16:00 68.4 66.0 92 SSE 2 G 4 29.84 1010.5 0.08 0.09 156 0.059
28 15:00 68.8 65.1 88 S 1 G 5 29.86 1011.3 0.01 46 0.057
28 14:00 71.4 65.6 76.3 62.1 82 NE 0 G 1 29.85 1010.8 0.01 0.01 0.01 0.01 109 0.052
28 13:00 74.6 63.8 69 E 3 G 8 29.86 1011.3 0.00 353 0.036
28 12:00 74.9 63.6 68 E 6 G 11 29.88 1011.9 0.00 856 0.018
28 11:00 70.2 63.0 78 ENE 1 G 5 29.88 1011.9 0.00 524 0.010
28 10:00 69.5 61.6 76 ENE 3 G 5 29.88 1011.9 0.00 297 0.004
28 09:00 66.9 60.2 79 ENE 2 G 7 29.88 1011.7 0.00 79 0.002
28 08:00 62.1 60.9 62.2 56.2 96 ENE 2 G 5 29.88 1011.8 0.00 63 0.001
28 07:00 58.0 57.2 97 Calm 29.87 1011.5 0.00 51 0.000
28 06:00 56.4 55.6 97 Calm 29.87 1011.5 0.00 9 0.000
28 05:00 57.1 56.0 96 Calm 29.85 1010.8 0.00 0 0.000
28 04:00 57.6 56.5 96 SE 0 G 1 29.87 1011.4 0.00 0 0.000
28 03:00 58.4 57.3 96 SE 0 G 1 29.87 1011.4 0.00 0 0.000
28 02:00 59.4 58.0 64.7 59.3 95 SE 0 G 1 29.87 1011.6 0.00 0 0.000
28 01:00 60.4 59.0 95 Calm 29.88 1012.0 0.00 0 0.000
28 00:00 62.0 60.0 93 Calm 29.90 1012.5 0.00 0 0.073
27 23:00 63.0 60.9 93 Calm 29.91 1012.9 0.00 0 0.073
27 22:00 63.7 60.7 90 NNE 0 G 3 29.90 1012.6 0.00 0 0.073
27 21:00 64.1 61.4 91 ENE 1 G 4 29.88 1011.8 0.00 0 0.073
27 20:00 64.7 61.4 70.6 64.7 89 E 2 G 3 29.88 1011.8 0.00 11 0.072
27 19:00 65.1 61.1 87 ENE 3 G 6 29.87 1011.6 0.00 33 0.070
27 18:00 66.8 61.8 84 NE 2 G 4 29.88 1011.8 0.00 90 0.067
27 17:00 68.4 61.3 78 ENE 1 G 3 29.88 1012.0 0.00 69 0.063
27 16:00 70.2 60.8 72 E 2 G 3 29.88 1011.9 0.00 200 0.058
27 15:00 69.5 58.5 68 SE 1 G 5 29.88 1011.9 0.00 262 0.053
27 14:00 70.3 57.1 73.2 62.4 63 NE 2 G 4 29.90 1012.4 0.00 174 0.044
27 13:00 73.2 59.4 62 E 3 G 5 29.89 1012.3 0.00 510 0.030
27 12:00 71.0 59.1 66 E 2 G 4 29.88 1011.9 0.00 267 0.020
27 11:00 71.3 57.6 62 E 2 G 5 29.89 1012.2 0.00 1009 0.010
27 10:00 66.7 59.6 78 WSW 0 G 2 29.91 1012.8 0.00 360 0.006
27 09:00 64.9 59.3 82 W 0 G 1 29.91 1012.9 0.00 70 0.003
27 08:00 62.4 58.5 62.4 56.1 87 W 0 G 2 29.90 1012.7 0.00 179 0.001
27 07:00 58.3 56.3 93 W 0 G 1 29.89 1012.3 0.00 79 0.000
27 06:00 57.3 54.7 91 Calm 29.89 1012.1 0.00 14 0.000
27 05:00 59.3 55.7 88 W 0 G 2 29.90 1012.7 0.00 0 0.000
27 04:00 58.7 56.1 91 WNW 1 G 2 29.90 1012.5 0.00 0 0.000
27 03:00 57.5 55.5 93 Calm 29.89 1012.4 0.00 0 0.000
27 02:00 56.2 54.8 69.6 55.8 95 Calm 29.89 1012.4 0.00 0 0.000
27 01:00 56.4 54.1 92 Calm 29.89 1012.2 0.00 0 0.000
27 00:00 57.6 54.7 90 Calm 29.88 1012.0 0.01 0 0.115
26 23:00 59.0 55.1 87 NW 0 G 1 29.87 1011.6 0.01 0 0.114
26 22:00 61.9 56.3 82 NW 0 G 1 29.86 1011.4 0.01 0 0.113
26 21:00 65.9 56.6 72 W 2 G 6 29.84 1010.4 0.01 0 0.112
26 20:00 69.6 56.5 76.0 69.6 63 WNW 3 G 16 29.81 1009.6 0.01 11 0.109
26 19:00 72.0 57.4 60 NW 3 G 17 29.79 1009.0 0.01 51 0.104
26 18:00 73.2 58.0 59 WNW 4 G 16 29.77 1008.1 0.01 171 0.096
26 17:00 75.7 58.9 56 WNW 6 G 19 29.75 1007.3 0.01 165 0.080
26 16:00 75.3 59.5 58 W 5 G 17 29.73 1006.9 0.01 237 0.067
26 15:00 74.1 60.3 62 W 6 G 25 29.72 1006.6 0.01 320 0.052

Data generated by WxSolution Version 1.9.0.2, Build 2016.11.28.